SDM602 UWKD-UWUU
Flight info
| Callsign | SDM602 |
|---|---|
| Flight time | 0h 37m |
| Altitude | 35000 |
| Route | INTAR1G INTAR T788 NAMUD L994 DILUP DILUP3K |
| Aircraft | A320/M-SDE3FGHIRWY/LB1 |
Departure
| Time | 2026-04-26 12:15 |
|---|---|
| Airport | Kazan International Airport (UWKD) |
Arrival
| Time | 2026-04-26 12:53 |
|---|---|
| Airport | Ufa International Airport (UWUU) |
| Time | Latitude | Longitude | Altitude | Speed | Heading |
|---|---|---|---|---|---|
| 2026-04-26 11:37 | 55.60812 | 49.29696 | 407 ft | 0 kts | 34° |
| 2026-04-26 12:01 | 55.60806 | 49.29688 | 416 ft | 2 kts | 35° |
| 2026-04-26 12:01 | 55.60793 | 49.29672 | 405 ft | 2 kts | 33° |
| 2026-04-26 12:01 | 55.60779 | 49.29657 | 416 ft | 2 kts | 27° |
| 2026-04-26 12:01 | 55.60764 | 49.29645 | 409 ft | 2 kts | 12° |
| 2026-04-26 12:02 | 55.60748 | 49.29646 | 411 ft | 2 kts | 305° |
| 2026-04-26 12:02 | 55.60745 | 49.29654 | 412 ft | 0 kts | 304° |
| 2026-04-26 12:08 | 55.60748 | 49.29644 | 410 ft | 6 kts | 304° |
| 2026-04-26 12:08 | 55.60806 | 49.29492 | 411 ft | 14 kts | 298° |
| 2026-04-26 12:08 | 55.60767 | 49.29368 | 411 ft | 13 kts | 216° |
| 2026-04-26 12:08 | 55.60686 | 49.29272 | 416 ft | 16 kts | 214° |
| 2026-04-26 12:09 | 55.60594 | 49.29142 | 411 ft | 17 kts | 232° |
| 2026-04-26 12:09 | 55.60582 | 49.28922 | 416 ft | 19 kts | 275° |
| 2026-04-26 12:09 | 55.60592 | 49.28670 | 416 ft | 21 kts | 277° |
| 2026-04-26 12:09 | 55.60648 | 49.28468 | 410 ft | 21 kts | 303° |
| 2026-04-26 12:10 | 55.60755 | 49.28193 | 410 ft | 23 kts | 304° |
| 2026-04-26 12:10 | 55.60847 | 49.27960 | 409 ft | 25 kts | 304° |
| 2026-04-26 12:10 | 55.60947 | 49.27700 | 416 ft | 26 kts | 304° |
| 2026-04-26 12:10 | 55.61057 | 49.27416 | 412 ft | 28 kts | 304° |
| 2026-04-26 12:11 | 55.61128 | 49.27233 | 411 ft | 29 kts | 304° |
| 2026-04-26 12:11 | 55.61285 | 49.26828 | 409 ft | 31 kts | 304° |
| 2026-04-26 12:11 | 55.61409 | 49.26509 | 410 ft | 32 kts | 305° |
| 2026-04-26 12:11 | 55.61539 | 49.26176 | 410 ft | 33 kts | 304° |
| 2026-04-26 12:12 | 55.61672 | 49.25832 | 412 ft | 34 kts | 304° |
| 2026-04-26 12:12 | 55.61814 | 49.25465 | 416 ft | 35 kts | 304° |
| 2026-04-26 12:12 | 55.61845 | 49.25293 | 416 ft | 7 kts | 253° |
| 2026-04-26 12:12 | 55.61826 | 49.25262 | 412 ft | 7 kts | 221° |
| 2026-04-26 12:13 | 55.61806 | 49.25235 | 413 ft | 0 kts | 214° |
| 2026-04-26 12:14 | 55.61792 | 49.25218 | 410 ft | 17 kts | 214° |
| 2026-04-26 12:14 | 55.61683 | 49.25147 | 410 ft | 10 kts | 140° |
| 2026-04-26 12:14 | 55.61670 | 49.25179 | 411 ft | 2 kts | 123° |
| 2026-04-26 12:15 | 55.61551 | 49.25481 | 414 ft | 67 kts | 125° |
| 2026-04-26 12:15 | 55.61145 | 49.26524 | 410 ft | 130 kts | 124° |
| 2026-04-26 12:15 | 55.60579 | 49.27972 | 725 ft | 151 kts | 127° |
| 2026-04-26 12:15 | 55.59973 | 49.29512 | 1398 ft | 154 kts | 130° |
| 2026-04-26 12:16 | 55.59347 | 49.31092 | 2098 ft | 160 kts | 130° |
| 2026-04-26 12:16 | 55.58672 | 49.32817 | 2486 ft | 181 kts | 130° |
| 2026-04-26 12:16 | 55.57909 | 49.34764 | 2816 ft | 205 kts | 130° |
| 2026-04-26 12:16 | 55.57049 | 49.36962 | 3195 ft | 229 kts | 131° |
| 2026-04-26 12:17 | 55.56097 | 49.39403 | 3695 ft | 252 kts | 130° |
| 2026-04-26 12:17 | 55.55052 | 49.41936 | 4552 ft | 258 kts | 134° |
| 2026-04-26 12:17 | 55.53881 | 49.44353 | 5464 ft | 260 kts | 139° |
| 2026-04-26 12:17 | 55.52614 | 49.46569 | 6348 ft | 265 kts | 141° |
| 2026-04-26 12:18 | 55.51250 | 49.48813 | 6894 ft | 270 kts | 142° |
| 2026-04-26 12:18 | 55.49862 | 49.51074 | 7813 ft | 274 kts | 142° |
| 2026-04-26 12:18 | 55.48458 | 49.53388 | 8677 ft | 279 kts | 141° |
| 2026-04-26 12:18 | 55.47034 | 49.55769 | 9523 ft | 285 kts | 141° |
| 2026-04-26 12:19 | 55.45579 | 49.58223 | 10114 ft | 299 kts | 141° |
| 2026-04-26 12:19 | 55.44016 | 49.60863 | 10410 ft | 323 kts | 140° |
| 2026-04-26 12:19 | 55.42350 | 49.63695 | 10802 ft | 340 kts | 140° |
| 2026-04-26 12:19 | 55.40631 | 49.66642 | 11480 ft | 348 kts | 140° |
| 2026-04-26 12:20 | 55.38914 | 49.69590 | 12164 ft | 354 kts | 140° |
| 2026-04-26 12:20 | 55.37136 | 49.72642 | 12879 ft | 360 kts | 140° |
| 2026-04-26 12:20 | 55.35327 | 49.75741 | 13593 ft | 366 kts | 140° |
| 2026-04-26 12:20 | 55.33492 | 49.78881 | 14235 ft | 371 kts | 140° |
| 2026-04-26 12:21 | 55.31633 | 49.82060 | 14882 ft | 375 kts | 139° |
| 2026-04-26 12:21 | 55.29939 | 49.85606 | 15513 ft | 384 kts | 128° |
| 2026-04-26 12:21 | 55.28627 | 49.89744 | 16150 ft | 393 kts | 116° |
| 2026-04-26 12:21 | 55.27540 | 49.94168 | 16792 ft | 397 kts | 116° |
| 2026-04-26 12:22 | 55.26435 | 49.98640 | 17414 ft | 401 kts | 116° |
| 2026-04-26 12:22 | 55.25314 | 50.03138 | 18048 ft | 405 kts | 117° |
| 2026-04-26 12:22 | 55.24177 | 50.07685 | 18590 ft | 409 kts | 117° |
| 2026-04-26 12:22 | 55.23027 | 50.12270 | 19145 ft | 413 kts | 117° |
| 2026-04-26 12:23 | 55.21860 | 50.16910 | 19673 ft | 418 kts | 117° |
| 2026-04-26 12:23 | 55.20681 | 50.21587 | 20181 ft | 423 kts | 117° |
| 2026-04-26 12:23 | 55.19489 | 50.26324 | 20717 ft | 427 kts | 117° |
| 2026-04-26 12:23 | 55.18288 | 50.31096 | 21257 ft | 431 kts | 117° |
| 2026-04-26 12:24 | 55.17071 | 50.35916 | 21792 ft | 435 kts | 117° |
| 2026-04-26 12:24 | 55.15839 | 50.40777 | 22328 ft | 439 kts | 117° |
| 2026-04-26 12:24 | 55.14594 | 50.45673 | 22828 ft | 443 kts | 117° |
| 2026-04-26 12:25 | 55.12061 | 50.55582 | 23742 ft | 450 kts | 117° |
| 2026-04-26 12:25 | 55.10779 | 50.60585 | 24163 ft | 453 kts | 117° |
| 2026-04-26 12:25 | 55.09487 | 50.65620 | 24569 ft | 456 kts | 117° |
| 2026-04-26 12:25 | 55.08185 | 50.70683 | 24936 ft | 459 kts | 117° |
| 2026-04-26 12:26 | 55.06868 | 50.75774 | 25291 ft | 462 kts | 117° |
| 2026-04-26 12:26 | 55.05543 | 50.80893 | 25685 ft | 464 kts | 117° |
| 2026-04-26 12:26 | 55.04329 | 50.86139 | 26059 ft | 469 kts | 111° |
| 2026-04-26 12:26 | 55.03263 | 50.91519 | 26430 ft | 471 kts | 111° |
| 2026-04-26 12:27 | 55.02189 | 50.96941 | 26787 ft | 474 kts | 111° |
| 2026-04-26 12:27 | 55.01114 | 51.02369 | 27157 ft | 476 kts | 111° |
| 2026-04-26 12:27 | 55.00030 | 51.07825 | 27527 ft | 479 kts | 111° |
| 2026-04-26 12:27 | 54.98931 | 51.13334 | 27859 ft | 482 kts | 111° |
| 2026-04-26 12:28 | 54.97843 | 51.18751 | 28184 ft | 484 kts | 111° |
| 2026-04-26 12:28 | 54.96723 | 51.24292 | 28499 ft | 486 kts | 111° |
| 2026-04-26 12:28 | 54.95620 | 51.29737 | 28796 ft | 489 kts | 111° |
| 2026-04-26 12:28 | 54.94486 | 51.35330 | 29105 ft | 491 kts | 111° |
| 2026-04-26 12:29 | 54.93343 | 51.40941 | 29397 ft | 494 kts | 111° |
| 2026-04-26 12:29 | 54.92190 | 51.46575 | 29684 ft | 496 kts | 111° |
| 2026-04-26 12:29 | 54.89865 | 51.57908 | 30201 ft | 500 kts | 111° |
| 2026-04-26 12:30 | 54.88695 | 51.63595 | 30424 ft | 501 kts | 111° |
| 2026-04-26 12:30 | 54.87517 | 51.69304 | 30662 ft | 502 kts | 111° |
| 2026-04-26 12:30 | 54.86338 | 51.75005 | 30969 ft | 502 kts | 111° |
| 2026-04-26 12:31 | 54.83989 | 51.86298 | 31581 ft | 500 kts | 111° |
| 2026-04-26 12:31 | 54.82806 | 51.91959 | 31905 ft | 499 kts | 111° |
| 2026-04-26 12:31 | 54.81624 | 51.97610 | 32215 ft | 498 kts | 111° |
| 2026-04-26 12:31 | 54.80444 | 52.03255 | 32531 ft | 498 kts | 111° |
| 2026-04-26 12:32 | 54.79260 | 52.08890 | 32834 ft | 497 kts | 111° |
| 2026-04-26 12:32 | 54.78073 | 52.14510 | 33162 ft | 497 kts | 111° |
| 2026-04-26 12:32 | 54.75686 | 52.25758 | 33730 ft | 498 kts | 111° |
| 2026-04-26 12:33 | 54.74490 | 52.31382 | 34013 ft | 497 kts | 111° |
| 2026-04-26 12:33 | 54.73293 | 52.36994 | 34259 ft | 497 kts | 111° |
| 2026-04-26 12:33 | 54.72094 | 52.42597 | 34527 ft | 496 kts | 111° |
| 2026-04-26 12:33 | 54.70895 | 52.48184 | 34783 ft | 496 kts | 111° |
| 2026-04-26 12:34 | 54.69692 | 52.53768 | 34905 ft | 495 kts | 111° |
| 2026-04-26 12:34 | 54.67284 | 52.64891 | 34942 ft | 493 kts | 111° |
| 2026-04-26 12:35 | 54.64877 | 52.75972 | 34941 ft | 493 kts | 111° |
| 2026-04-26 12:35 | 54.62886 | 52.87287 | 34938 ft | 493 kts | 105° |
| 2026-04-26 12:36 | 54.61128 | 52.98730 | 34944 ft | 493 kts | 105° |
| 2026-04-26 12:36 | 54.59352 | 53.10162 | 34951 ft | 493 kts | 105° |
| 2026-04-26 12:37 | 54.57564 | 53.21584 | 34957 ft | 494 kts | 105° |
| 2026-04-26 12:37 | 54.55774 | 53.32991 | 34947 ft | 494 kts | 105° |
| 2026-04-26 12:38 | 54.53971 | 53.44417 | 34947 ft | 494 kts | 105° |
| 2026-04-26 12:38 | 54.52149 | 53.55821 | 34927 ft | 494 kts | 105° |
| 2026-04-26 12:39 | 54.50305 | 53.67290 | 34932 ft | 494 kts | 105° |
| 2026-04-26 12:39 | 54.48469 | 53.78688 | 34938 ft | 495 kts | 106° |
| 2026-04-26 12:40 | 54.46623 | 53.90084 | 34225 ft | 498 kts | 105° |
| 2026-04-26 12:40 | 54.45676 | 53.95879 | 32888 ft | 508 kts | 105° |
| 2026-04-26 12:40 | 54.44712 | 54.01747 | 31673 ft | 513 kts | 105° |
| 2026-04-26 12:40 | 54.43734 | 54.07672 | 30559 ft | 516 kts | 105° |
| 2026-04-26 12:41 | 54.42755 | 54.13585 | 29576 ft | 514 kts | 105° |
| 2026-04-26 12:41 | 54.41777 | 54.19473 | 28618 ft | 510 kts | 105° |
| 2026-04-26 12:41 | 54.40808 | 54.25298 | 27815 ft | 505 kts | 105° |
| 2026-04-26 12:41 | 54.39845 | 54.31054 | 27048 ft | 499 kts | 105° |
| 2026-04-26 12:42 | 54.38896 | 54.36749 | 26307 ft | 493 kts | 103° |
| 2026-04-26 12:42 | 54.38335 | 54.42498 | 25615 ft | 485 kts | 91° |
| 2026-04-26 12:42 | 54.38431 | 54.48217 | 24945 ft | 476 kts | 79° |
| 2026-04-26 12:42 | 54.39102 | 54.53716 | 24310 ft | 468 kts | 72° |
| 2026-04-26 12:43 | 54.40006 | 54.58945 | 24147 ft | 447 kts | 63° |
| 2026-04-26 12:43 | 54.41267 | 54.63708 | 23519 ft | 432 kts | 60° |
| 2026-04-26 12:43 | 54.42509 | 54.68253 | 22492 ft | 426 kts | 60° |
| 2026-04-26 12:43 | 54.43770 | 54.72811 | 21565 ft | 419 kts | 60° |
| 2026-04-26 12:44 | 54.45019 | 54.77295 | 20631 ft | 413 kts | 60° |
| 2026-04-26 12:44 | 54.46261 | 54.81780 | 19704 ft | 407 kts | 61° |
| 2026-04-26 12:44 | 54.47444 | 54.86096 | 18836 ft | 402 kts | 61° |
| 2026-04-26 12:44 | 54.48655 | 54.90391 | 17928 ft | 396 kts | 59° |
| 2026-04-26 12:45 | 54.49916 | 54.94564 | 16980 ft | 390 kts | 59° |
| 2026-04-26 12:45 | 54.51168 | 54.98664 | 16076 ft | 384 kts | 59° |
| 2026-04-26 12:45 | 54.52407 | 55.02696 | 15217 ft | 378 kts | 59° |
| 2026-04-26 12:45 | 54.53633 | 55.06671 | 14376 ft | 373 kts | 59° |
| 2026-04-26 12:46 | 54.54787 | 55.10640 | 13523 ft | 369 kts | 66° |
| 2026-04-26 12:46 | 54.55664 | 55.14769 | 12614 ft | 365 kts | 69° |
| 2026-04-26 12:46 | 54.56490 | 55.18870 | 11704 ft | 360 kts | 69° |
| 2026-04-26 12:46 | 54.57306 | 55.22913 | 10817 ft | 355 kts | 69° |
| 2026-04-26 12:47 | 54.58115 | 55.26890 | 10182 ft | 344 kts | 69° |
| 2026-04-26 12:47 | 54.58873 | 55.30626 | 10028 ft | 319 kts | 69° |
| 2026-04-26 12:47 | 54.59588 | 55.34163 | 9541 ft | 308 kts | 69° |
| 2026-04-26 12:47 | 54.60293 | 55.37626 | 8899 ft | 304 kts | 69° |
| 2026-04-26 12:48 | 54.60994 | 55.41037 | 8248 ft | 300 kts | 69° |
| 2026-04-26 12:48 | 54.61690 | 55.44405 | 7589 ft | 296 kts | 69° |
| 2026-04-26 12:48 | 54.62383 | 55.47729 | 6935 ft | 293 kts | 69° |
| 2026-04-26 12:48 | 54.63092 | 55.50995 | 6287 ft | 288 kts | 66° |
| 2026-04-26 12:49 | 54.63906 | 55.54133 | 5586 ft | 285 kts | 64° |
| 2026-04-26 12:49 | 54.64744 | 55.57217 | 4918 ft | 282 kts | 64° |
| 2026-04-26 12:49 | 54.65583 | 55.60271 | 4213 ft | 281 kts | 64° |
| 2026-04-26 12:49 | 54.66421 | 55.63296 | 3516 ft | 278 kts | 64° |
| 2026-04-26 12:50 | 54.67052 | 55.66410 | 3033 ft | 271 kts | 81° |
| 2026-04-26 12:50 | 54.67171 | 55.68607 | 2930 ft | 271 kts | 92° |
| 2026-04-26 12:50 | 54.66913 | 55.71807 | 2689 ft | 268 kts | 109° |
| 2026-04-26 12:50 | 54.66158 | 55.74730 | 2411 ft | 261 kts | 126° |
| 2026-04-26 12:51 | 54.64997 | 55.77154 | 2172 ft | 258 kts | 141° |
| 2026-04-26 12:51 | 54.63629 | 55.78835 | 1848 ft | 226 kts | 155° |
| 2026-04-26 12:51 | 54.62293 | 55.80130 | 1555 ft | 213 kts | 152° |
| 2026-04-26 12:51 | 54.61082 | 55.81507 | 1299 ft | 200 kts | 157° |
| 2026-04-26 12:52 | 54.59874 | 55.82527 | 1097 ft | 181 kts | 158° |
| 2026-04-26 12:52 | 54.58817 | 55.83472 | 832 ft | 161 kts | 153° |
| 2026-04-26 12:52 | 54.57899 | 55.84392 | 635 ft | 146 kts | 155° |
| 2026-04-26 12:52 | 54.57028 | 55.85216 | 457 ft | 137 kts | 156° |
| 2026-04-26 12:53 | 54.56288 | 55.85912 | 452 ft | 101 kts | 150° |
| 2026-04-26 12:53 | 54.55897 | 55.86296 | 451 ft | 22 kts | 149° |
| 2026-04-26 12:53 | 54.55873 | 55.86502 | 451 ft | 19 kts | 62° |
| 2026-04-26 12:53 | 54.55891 | 55.86556 | 450 ft | 0 kts | 59° |
| 2026-04-26 12:55 | 54.55931 | 55.86672 | 450 ft | 18 kts | 60° |
| 2026-04-26 12:55 | 54.55992 | 55.86858 | 450 ft | 17 kts | 60° |
| 2026-04-26 12:55 | 54.56048 | 55.87029 | 450 ft | 16 kts | 60° |
| 2026-04-26 12:56 | 54.56100 | 55.87187 | 450 ft | 15 kts | 60° |
| 2026-04-26 12:56 | 54.56148 | 55.87334 | 450 ft | 14 kts | 61° |
| 2026-04-26 12:56 | 54.56179 | 55.87431 | 450 ft | 0 kts | 60° |
| 2026-04-26 13:05 | 54.56185 | 55.87447 | 450 ft | 10 kts | 60° |
| 2026-04-26 13:05 | 54.56265 | 55.87689 | 450 ft | 27 kts | 60° |
| 2026-04-26 13:06 | 54.56359 | 55.87974 | 450 ft | 28 kts | 60° |
| 2026-04-26 13:06 | 54.56446 | 55.88277 | 450 ft | 23 kts | 64° |
| 2026-04-26 13:06 | 54.56464 | 55.88335 | 450 ft | 0 kts | 60° |